LLBG/TLV METAR and TAF weather

Enter ICAO airport designator
Station Type Date Time Source
LLBG METAR 2021/01/27 12:20 UTC NOAA

LLBG 271220Z 25013KT CAVOK 19/07 Q1011 NOSIG


Station Type Date Time Source
LLBG Decoded METAR 2021/01/27 12:20 UTC NOAA

Ben-Gurion International Airport, Israel (LLBG) 32-00N 034-54E 49M
Jan 27, 2021 - 07:20 AM EST / 2021.01.27 1220 UTC
Wind: from the WSW (250 degrees) at 15 MPH (13 KT):0
Visibility: greater than 7 mile(s):0
Temperature: 66 F (19 C)
Dew Point: 44 F (7 C)
Relative Humidity: 45%
Pressure (altimeter): 29.85 in. Hg (1011 hPa)
ob: LLBG 271220Z 25013KT CAVOK 19/07 Q1011 NOSIG
cycle: 12

Station Type Date Time Source
LLBG TAF 2021/01/27 12:24 UTC NOAA

TAF TAF LLBG 271118Z 2712/2812 22012KT CAVOK
BECMG 2715/2717 14005KT
FM272200 14005KT 9999 SCT030 PROB40
TEMPO 2722/2812 27010KT 6000 RA FEW025TCU BKN030 PROB40
TEMPO 2800/2806 29015G25KT 7000 RA BKN025 TX20/2712Z TN09/2804Z

Example: see airport list